sensor_id;sensor_type;location;lat;lon;timestamp;P1;durP1;ratioP1;P2;durP2;ratioP2
209;SDS011;90;48.810;9.120;2023-02-01T00:00:17;8.50;;;6.00;;
209;SDS011;90;48.810;9.120;2023-02-01T00:02:45;5.60;;;5.30;;
209;SDS011;90;48.810;9.120;2023-02-01T00:05:12;5.97;;;5.45;;
209;SDS011;90;48.810;9.120;2023-02-01T00:07:39;7.30;;;5.38;;
209;SDS011;90;48.810;9.120;2023-02-01T00:10:06;5.80;;;5.10;;
209;SDS011;90;48.810;9.120;2023-02-01T00:12:36;6.15;;;4.93;;
209;SDS011;90;48.810;9.120;2023-02-01T00:15:03;7.13;;;4.70;;
209;SDS011;90;48.810;9.120;2023-02-01T00:17:31;5.32;;;5.03;;
209;SDS011;90;48.810;9.120;2023-02-01T00:19:58;6.25;;;5.10;;
209;SDS011;90;48.810;9.120;2023-02-01T00:22:24;4.95;;;4.65;;
209;SDS011;90;48.810;9.120;2023-02-01T00:24:51;6.63;;;5.90;;
209;SDS011;90;48.810;9.120;2023-02-01T00:27:18;5.22;;;4.93;;
209;SDS011;90;48.810;9.120;2023-02-01T00:29:47;6.20;;;4.60;;
209;SDS011;90;48.810;9.120;2023-02-01T00:32:14;4.70;;;4.20;;
209;SDS011;90;48.810;9.120;2023-02-01T00:34:41;4.80;;;4.40;;
209;SDS011;90;48.810;9.120;2023-02-01T00:37:08;5.90;;;4.68;;
209;SDS011;90;48.810;9.120;2023-02-01T00:39:35;4.55;;;4.25;;
209;SDS011;90;48.810;9.120;2023-02-01T00:42:02;8.80;;;4.90;;
209;SDS011;90;48.810;9.120;2023-02-01T00:44:29;4.90;;;4.60;;
209;SDS011;90;48.810;9.120;2023-02-01T00:47:00;4.38;;;4.07;;
209;SDS011;90;48.810;9.120;2023-02-01T00:49:28;4.80;;;4.50;;
209;SDS011;90;48.810;9.120;2023-02-01T00:51:55;5.68;;;4.53;;
209;SDS011;90;48.810;9.120;2023-02-01T00:54:22;4.00;;;3.80;;
209;SDS011;90;48.810;9.120;2023-02-01T00:56:49;5.68;;;4.78;;
209;SDS011;90;48.810;9.120;2023-02-01T00:59:16;4.80;;;4.03;;
209;SDS011;90;48.810;9.120;2023-02-01T01:01:43;4.82;;;3.90;;
209;SDS011;90;48.810;9.120;2023-02-01T01:04:11;3.75;;;3.55;;
209;SDS011;90;48.810;9.120;2023-02-01T01:06:38;4.00;;;3.80;;
209;SDS011;90;48.810;9.120;2023-02-01T01:09:06;7.85;;;3.90;;
209;SDS011;90;48.810;9.120;2023-02-01T01:11:35;7.35;;;4.28;;
209;SDS011;90;48.810;9.120;2023-02-01T01:14:03;3.63;;;3.45;;
209;SDS011;90;48.810;9.120;2023-02-01T01:16:32;3.78;;;3.58;;
209;SDS011;90;48.810;9.120;2023-02-01T01:18:59;3.90;;;3.70;;
209;SDS011;90;48.810;9.120;2023-02-01T01:21:28;4.25;;;3.72;;
209;SDS011;90;48.810;9.120;2023-02-01T01:23:56;4.88;;;3.90;;
209;SDS011;90;48.810;9.120;2023-02-01T01:26:23;4.03;;;3.83;;
209;SDS011;90;48.810;9.120;2023-02-01T01:28:52;3.80;;;3.60;;
209;SDS011;90;48.810;9.120;2023-02-01T01:31:20;3.70;;;3.50;;
209;SDS011;90;48.810;9.120;2023-02-01T01:33:48;3.47;;;3.28;;
209;SDS011;90;48.810;9.120;2023-02-01T01:36:16;5.05;;;3.95;;
209;SDS011;90;48.810;9.120;2023-02-01T01:38:44;3.95;;;3.63;;
209;SDS011;90;48.810;9.120;2023-02-01T01:41:12;3.75;;;3.55;;
209;SDS011;90;48.810;9.120;2023-02-01T01:43:45;3.75;;;3.53;;
209;SDS011;90;48.810;9.120;2023-02-01T01:46:15;3.60;;;3.20;;
209;SDS011;90;48.810;9.120;2023-02-01T01:48:43;5.88;;;2.92;;
209;SDS011;90;48.810;9.120;2023-02-01T01:51:11;3.25;;;3.05;;
209;SDS011;90;48.810;9.120;2023-02-01T01:53:41;2.90;;;2.70;;
209;SDS011;90;48.810;9.120;2023-02-01T01:56:12;4.00;;;3.45;;
209;SDS011;90;48.810;9.120;2023-02-01T01:58:40;3.25;;;3.05;;
209;SDS011;90;48.810;9.120;2023-02-01T02:01:07;4.30;;;3.40;;
209;SDS011;90;48.810;9.120;2023-02-01T02:03:35;3.30;;;3.10;;
209;SDS011;90;48.810;9.120;2023-02-01T02:06:06;3.25;;;3.05;;
209;SDS011;90;48.810;9.120;2023-02-01T02:08:40;4.05;;;3.85;;
209;SDS011;90;48.810;9.120;2023-02-01T02:11:08;3.40;;;3.20;;
209;SDS011;90;48.810;9.120;2023-02-01T02:13:38;3.75;;;3.33;;
209;SDS011;90;48.810;9.120;2023-02-01T02:16:15;3.78;;;3.58;;
209;SDS011;90;48.810;9.120;2023-02-01T02:18:57;3.60;;;3.33;;
209;SDS011;90;48.810;9.120;2023-02-01T02:21:48;3.53;;;3.33;;
209;SDS011;90;48.810;9.120;2023-02-01T02:24:39;3.17;;;2.90;;
209;SDS011;90;48.810;9.120;2023-02-01T02:27:22;3.50;;;3.30;;
209;SDS011;90;48.810;9.120;2023-02-01T02:32:54;3.45;;;3.22;;
209;SDS011;90;48.810;9.120;2023-02-01T02:35:46;3.50;;;3.30;;
209;SDS011;90;48.810;9.120;2023-02-01T02:38:22;3.65;;;3.45;;
209;SDS011;90;48.810;9.120;2023-02-01T02:40:56;3.60;;;3.40;;
209;SDS011;90;48.810;9.120;2023-02-01T02:43:31;4.75;;;4.00;;
209;SDS011;90;48.810;9.120;2023-02-01T02:46:28;3.88;;;3.67;;
209;SDS011;90;48.810;9.120;2023-02-01T02:49:20;5.03;;;4.57;;
209;SDS011;90;48.810;9.120;2023-02-01T02:51:56;3.88;;;3.67;;
209;SDS011;90;48.810;9.120;2023-02-01T02:54:46;5.88;;;4.65;;
209;SDS011;90;48.810;9.120;2023-02-01T02:57:18;3.95;;;3.75;;
209;SDS011;90;48.810;9.120;2023-02-01T03:00:06;4.53;;;4.22;;
209;SDS011;90;48.810;9.120;2023-02-01T03:02:54;4.85;;;4.53;;
209;SDS011;90;48.810;9.120;2023-02-01T03:05:40;5.35;;;4.03;;
209;SDS011;90;48.810;9.120;2023-02-01T03:08:11;4.25;;;3.97;;
209;SDS011;90;48.810;9.120;2023-02-01T03:10:45;4.03;;;3.83;;
209;SDS011;90;48.810;9.120;2023-02-01T03:13:19;4.07;;;3.85;;
209;SDS011;90;48.810;9.120;2023-02-01T03:15:51;4.50;;;4.20;;
209;SDS011;90;48.810;9.120;2023-02-01T03:18:26;4.70;;;4.40;;
209;SDS011;90;48.810;9.120;2023-02-01T03:20:57;5.53;;;4.40;;
209;SDS011;90;48.810;9.120;2023-02-01T03:23:31;4.13;;;3.70;;
209;SDS011;90;48.810;9.120;2023-02-01T03:26:01;4.38;;;4.07;;
209;SDS011;90;48.810;9.120;2023-02-01T03:28:30;4.05;;;3.85;;
209;SDS011;90;48.810;9.120;2023-02-01T03:31:00;6.07;;;4.18;;
209;SDS011;90;48.810;9.120;2023-02-01T03:33:28;4.25;;;4.00;;
209;SDS011;90;48.810;9.120;2023-02-01T03:36:01;4.00;;;3.80;;
209;SDS011;90;48.810;9.120;2023-02-01T03:38:37;3.85;;;3.45;;
209;SDS011;90;48.810;9.120;2023-02-01T03:41:08;3.55;;;3.33;;
209;SDS011;90;48.810;9.120;2023-02-01T03:43:42;4.05;;;3.85;;
209;SDS011;90;48.810;9.120;2023-02-01T03:46:17;3.95;;;3.75;;
209;SDS011;90;48.810;9.120;2023-02-01T03:48:49;4.07;;;3.90;;
209;SDS011;90;48.810;9.120;2023-02-01T03:51:17;4.30;;;4.00;;
209;SDS011;90;48.810;9.120;2023-02-01T03:53:48;5.35;;;3.53;;
209;SDS011;90;48.810;9.120;2023-02-01T03:56:16;3.70;;;3.45;;
209;SDS011;90;48.810;9.120;2023-02-01T03:58:46;4.10;;;3.80;;
209;SDS011;90;48.810;9.120;2023-02-01T04:01:24;3.88;;;3.67;;
209;SDS011;90;48.810;9.120;2023-02-01T04:03:51;4.30;;;4.03;;
209;SDS011;90;48.810;9.120;2023-02-01T04:06:18;4.75;;;4.07;;
209;SDS011;90;48.810;9.120;2023-02-01T04:08:45;4.07;;;3.53;;
209;SDS011;90;48.810;9.120;2023-02-01T04:11:14;3.83;;;3.63;;
209;SDS011;90;48.810;9.120;2023-02-01T04:13:40;3.83;;;3.63;;
209;SDS011;90;48.810;9.120;2023-02-01T04:16:07;4.10;;;3.53;;
209;SDS011;90;48.810;9.120;2023-02-01T04:18:35;4.20;;;3.90;;
209;SDS011;90;48.810;9.120;2023-02-01T04:21:02;3.67;;;3.47;;
209;SDS011;90;48.810;9.120;2023-02-01T04:23:29;3.60;;;3.40;;
209;SDS011;90;48.810;9.120;2023-02-01T04:26:00;3.70;;;3.25;;
209;SDS011;90;48.810;9.120;2023-02-01T04:28:27;5.72;;;3.60;;
209;SDS011;90;48.810;9.120;2023-02-01T04:30:54;3.70;;;3.50;;
209;SDS011;90;48.810;9.120;2023-02-01T04:33:22;3.70;;;3.50;;
209;SDS011;90;48.810;9.120;2023-02-01T04:35:49;4.03;;;3.83;;
209;SDS011;90;48.810;9.120;2023-02-01T04:38:16;4.57;;;4.30;;
209;SDS011;90;48.810;9.120;2023-02-01T04:40:43;3.78;;;3.30;;
209;SDS011;90;48.810;9.120;2023-02-01T04:43:13;3.35;;;3.15;;
209;SDS011;90;48.810;9.120;2023-02-01T04:45:41;3.40;;;3.20;;
209;SDS011;90;48.810;9.120;2023-02-01T04:48:12;3.95;;;3.75;;
209;SDS011;90;48.810;9.120;2023-02-01T04:50:39;3.55;;;3.35;;
209;SDS011;90;48.810;9.120;2023-02-01T04:53:06;3.60;;;3.40;;
209;SDS011;90;48.810;9.120;2023-02-01T04:55:33;3.65;;;3.45;;
209;SDS011;90;48.810;9.120;2023-02-01T04:58:00;6.13;;;3.45;;
209;SDS011;90;48.810;9.120;2023-02-01T05:00:28;4.63;;;3.25;;
209;SDS011;90;48.810;9.120;2023-02-01T05:02:55;6.00;;;3.50;;
209;SDS011;90;48.810;9.120;2023-02-01T05:05:22;3.17;;;2.97;;
209;SDS011;90;48.810;9.120;2023-02-01T05:07:49;3.90;;;3.70;;
209;SDS011;90;48.810;9.120;2023-02-01T05:10:16;3.55;;;3.35;;
209;SDS011;90;48.810;9.120;2023-02-01T05:12:43;3.35;;;3.15;;
209;SDS011;90;48.810;9.120;2023-02-01T05:15:28;3.45;;;3.25;;
209;SDS011;90;48.810;9.120;2023-02-01T05:17:56;5.72;;;3.60;;
209;SDS011;90;48.810;9.120;2023-02-01T05:20:23;3.60;;;3.40;;
209;SDS011;90;48.810;9.120;2023-02-01T05:22:50;3.28;;;3.08;;
209;SDS011;90;48.810;9.120;2023-02-01T05:25:17;3.35;;;3.15;;
209;SDS011;90;48.810;9.120;2023-02-01T05:27:44;3.50;;;3.33;;
209;SDS011;90;48.810;9.120;2023-02-01T05:30:11;3.53;;;3.33;;
209;SDS011;90;48.810;9.120;2023-02-01T05:32:40;3.53;;;3.33;;
209;SDS011;90;48.810;9.120;2023-02-01T05:35:07;3.40;;;3.20;;
209;SDS011;90;48.810;9.120;2023-02-01T05:37:35;3.45;;;3.25;;
209;SDS011;90;48.810;9.120;2023-02-01T05:40:02;3.65;;;3.22;;
209;SDS011;90;48.810;9.120;2023-02-01T05:42:29;3.70;;;3.50;;
209;SDS011;90;48.810;9.120;2023-02-01T05:44:56;4.47;;;3.75;;
209;SDS011;90;48.810;9.120;2023-02-01T05:47:23;3.70;;;3.50;;
209;SDS011;90;48.810;9.120;2023-02-01T05:49:52;4.13;;;3.33;;
209;SDS011;90;48.810;9.120;2023-02-01T05:52:20;4.78;;;3.35;;
209;SDS011;90;48.810;9.120;2023-02-01T05:54:47;3.85;;;3.33;;
209;SDS011;90;48.810;9.120;2023-02-01T05:57:14;3.50;;;3.30;;
209;SDS011;90;48.810;9.120;2023-02-01T05:59:41;5.50;;;4.00;;
209;SDS011;90;48.810;9.120;2023-02-01T06:02:09;5.30;;;3.45;;
209;SDS011;90;48.810;9.120;2023-02-01T06:04:37;3.70;;;2.75;;
209;SDS011;90;48.810;9.120;2023-02-01T06:07:06;5.07;;;3.67;;
209;SDS011;90;48.810;9.120;2023-02-01T06:09:34;3.65;;;3.47;;
209;SDS011;90;48.810;9.120;2023-02-01T06:12:02;3.58;;;3.40;;
209;SDS011;90;48.810;9.120;2023-02-01T06:14:29;5.72;;;3.53;;
209;SDS011;90;48.810;9.120;2023-02-01T06:16:56;3.60;;;3.40;;
209;SDS011;90;48.810;9.120;2023-02-01T06:19:23;7.95;;;3.55;;
209;SDS011;90;48.810;9.120;2023-02-01T06:21:50;3.80;;;3.50;;
209;SDS011;90;48.810;9.120;2023-02-01T06:24:18;3.40;;;3.20;;
209;SDS011;90;48.810;9.120;2023-02-01T06:26:45;3.70;;;3.30;;
209;SDS011;90;48.810;9.120;2023-02-01T06:29:12;5.35;;;3.95;;
209;SDS011;90;48.810;9.120;2023-02-01T06:31:39;4.35;;;4.05;;
209;SDS011;90;48.810;9.120;2023-02-01T06:34:07;4.63;;;4.38;;
209;SDS011;90;48.810;9.120;2023-02-01T06:36:34;6.05;;;4.43;;
209;SDS011;90;48.810;9.120;2023-02-01T06:39:01;6.35;;;4.30;;
209;SDS011;90;48.810;9.120;2023-02-01T06:41:30;5.28;;;4.22;;
209;SDS011;90;48.810;9.120;2023-02-01T06:43:59;4.53;;;4.22;;
209;SDS011;90;48.810;9.120;2023-02-01T06:46:26;6.05;;;4.82;;
209;SDS011;90;48.810;9.120;2023-02-01T06:48:53;5.68;;;4.32;;
209;SDS011;90;48.810;9.120;2023-02-01T06:51:21;5.80;;;5.07;;
209;SDS011;90;48.810;9.120;2023-02-01T06:53:49;9.15;;;5.30;;
209;SDS011;90;48.810;9.120;2023-02-01T06:56:16;6.90;;;5.57;;
209;SDS011;90;48.810;9.120;2023-02-01T06:58:45;8.52;;;5.00;;
209;SDS011;90;48.810;9.120;2023-02-01T07:01:12;6.43;;;5.15;;
209;SDS011;90;48.810;9.120;2023-02-01T07:03:40;6.05;;;5.13;;
209;SDS011;90;48.810;9.120;2023-02-01T07:06:08;6.65;;;4.50;;
209;SDS011;90;48.810;9.120;2023-02-01T07:08:39;7.50;;;5.00;;
209;SDS011;90;48.810;9.120;2023-02-01T07:11:06;5.88;;;5.00;;
209;SDS011;90;48.810;9.120;2023-02-01T07:13:35;6.55;;;4.57;;
209;SDS011;90;48.810;9.120;2023-02-01T07:16:05;6.25;;;5.03;;
209;SDS011;90;48.810;9.120;2023-02-01T07:18:35;7.50;;;5.25;;
209;SDS011;90;48.810;9.120;2023-02-01T07:21:02;7.57;;;5.40;;
209;SDS011;90;48.810;9.120;2023-02-01T07:23:29;8.32;;;5.60;;
209;SDS011;90;48.810;9.120;2023-02-01T07:25:56;11.32;;;5.75;;
209;SDS011;90;48.810;9.120;2023-02-01T07:28:25;5.93;;;5.65;;
209;SDS011;90;48.810;9.120;2023-02-01T07:30:52;14.73;;;5.25;;
209;SDS011;90;48.810;9.120;2023-02-01T07:33:21;13.57;;;6.00;;
209;SDS011;90;48.810;9.120;2023-02-01T07:35:50;9.52;;;5.72;;
209;SDS011;90;48.810;9.120;2023-02-01T07:38:17;8.07;;;5.25;;
209;SDS011;90;48.810;9.120;2023-02-01T07:40:46;14.82;;;5.57;;
209;SDS011;90;48.810;9.120;2023-02-01T07:43:13;15.07;;;5.70;;
209;SDS011;90;48.810;9.120;2023-02-01T07:45:40;8.07;;;5.18;;
209;SDS011;90;48.810;9.120;2023-02-01T07:48:08;6.82;;;5.15;;
209;SDS011;90;48.810;9.120;2023-02-01T07:50:36;7.85;;;5.45;;
209;SDS011;90;48.810;9.120;2023-02-01T07:53:03;10.80;;;5.45;;
209;SDS011;90;48.810;9.120;2023-02-01T07:55:30;10.45;;;5.82;;
209;SDS011;90;48.810;9.120;2023-02-01T07:57:58;6.60;;;5.35;;
209;SDS011;90;48.810;9.120;2023-02-01T08:00:25;9.68;;;5.38;;
209;SDS011;90;48.810;9.120;2023-02-01T08:03:09;12.52;;;5.35;;
209;SDS011;90;48.810;9.120;2023-02-01T08:05:37;10.70;;;5.55;;
209;SDS011;90;48.810;9.120;2023-02-01T08:08:05;10.10;;;5.57;;
209;SDS011;90;48.810;9.120;2023-02-01T08:10:32;11.25;;;5.88;;
209;SDS011;90;48.810;9.120;2023-02-01T08:13:00;12.63;;;6.18;;
209;SDS011;90;48.810;9.120;2023-02-01T08:15:27;8.10;;;5.72;;
209;SDS011;90;48.810;9.120;2023-02-01T08:17:55;14.05;;;5.63;;
209;SDS011;90;48.810;9.120;2023-02-01T08:20:23;10.63;;;5.55;;
209;SDS011;90;48.810;9.120;2023-02-01T08:22:53;15.25;;;6.10;;
209;SDS011;90;48.810;9.120;2023-02-01T08:25:21;10.80;;;6.13;;
209;SDS011;90;48.810;9.120;2023-02-01T08:27:48;9.57;;;5.32;;
209;SDS011;90;48.810;9.120;2023-02-01T08:30:16;9.68;;;5.60;;
209;SDS011;90;48.810;9.120;2023-02-01T08:32:44;13.10;;;5.30;;
209;SDS011;90;48.810;9.120;2023-02-01T08:35:11;9.85;;;5.30;;
209;SDS011;90;48.810;9.120;2023-02-01T08:37:38;10.13;;;6.10;;
209;SDS011;90;48.810;9.120;2023-02-01T08:40:09;9.25;;;5.85;;
209;SDS011;90;48.810;9.120;2023-02-01T08:42:39;9.57;;;5.80;;
209;SDS011;90;48.810;9.120;2023-02-01T08:45:19;12.50;;;5.65;;
209;SDS011;90;48.810;9.120;2023-02-01T08:47:48;10.35;;;5.72;;
209;SDS011;90;48.810;9.120;2023-02-01T08:50:16;7.25;;;5.57;;
209;SDS011;90;48.810;9.120;2023-02-01T08:52:44;13.75;;;5.45;;
209;SDS011;90;48.810;9.120;2023-02-01T08:55:15;12.60;;;6.07;;
209;SDS011;90;48.810;9.120;2023-02-01T08:57:42;7.85;;;4.47;;
209;SDS011;90;48.810;9.120;2023-02-01T09:00:11;7.93;;;5.15;;
209;SDS011;90;48.810;9.120;2023-02-01T09:02:40;6.80;;;5.10;;
209;SDS011;90;48.810;9.120;2023-02-01T09:05:08;12.27;;;5.65;;
209;SDS011;90;48.810;9.120;2023-02-01T09:07:36;8.65;;;5.05;;
209;SDS011;90;48.810;9.120;2023-02-01T09:10:03;8.02;;;5.25;;
209;SDS011;90;48.810;9.120;2023-02-01T09:12:32;8.05;;;5.00;;
209;SDS011;90;48.810;9.120;2023-02-01T09:14:59;11.43;;;5.43;;
209;SDS011;90;48.810;9.120;2023-02-01T09:17:28;9.68;;;4.97;;
209;SDS011;90;48.810;9.120;2023-02-01T09:19:56;9.68;;;5.20;;
209;SDS011;90;48.810;9.120;2023-02-01T09:22:23;9.75;;;5.50;;
209;SDS011;90;48.810;9.120;2023-02-01T09:24:51;7.93;;;5.20;;
209;SDS011;90;48.810;9.120;2023-02-01T09:27:18;10.68;;;5.22;;
209;SDS011;90;48.810;9.120;2023-02-01T09:29:50;9.15;;;5.30;;
209;SDS011;90;48.810;9.120;2023-02-01T09:32:18;12.95;;;5.85;;
209;SDS011;90;48.810;9.120;2023-02-01T09:34:46;9.23;;;5.40;;
209;SDS011;90;48.810;9.120;2023-02-01T09:37:13;12.57;;;5.63;;
209;SDS011;90;48.810;9.120;2023-02-01T09:39:40;11.20;;;5.28;;
209;SDS011;90;48.810;9.120;2023-02-01T09:42:14;12.52;;;4.78;;
209;SDS011;90;48.810;9.120;2023-02-01T09:45:04;10.93;;;5.22;;
209;SDS011;90;48.810;9.120;2023-02-01T09:47:43;11.10;;;4.90;;
209;SDS011;90;48.810;9.120;2023-02-01T09:50:15;15.50;;;5.05;;
209;SDS011;90;48.810;9.120;2023-02-01T09:52:48;13.23;;;5.10;;
209;SDS011;90;48.810;9.120;2023-02-01T09:55:23;11.80;;;5.03;;
209;SDS011;90;48.810;9.120;2023-02-01T09:57:58;13.10;;;5.10;;
209;SDS011;90;48.810;9.120;2023-02-01T10:00:29;14.18;;;5.07;;
209;SDS011;90;48.810;9.120;2023-02-01T10:02:59;13.00;;;4.40;;
209;SDS011;90;48.810;9.120;2023-02-01T10:05:33;16.95;;;5.15;;
209;SDS011;90;48.810;9.120;2023-02-01T10:08:17;13.95;;;4.60;;
209;SDS011;90;48.810;9.120;2023-02-01T10:10:52;10.48;;;4.90;;
209;SDS011;90;48.810;9.120;2023-02-01T10:13:28;14.18;;;5.00;;
209;SDS011;90;48.810;9.120;2023-02-01T10:16:08;7.35;;;4.70;;
209;SDS011;90;48.810;9.120;2023-02-01T10:18:47;8.60;;;4.68;;
209;SDS011;90;48.810;9.120;2023-02-01T10:21:27;14.18;;;4.93;;
209;SDS011;90;48.810;9.120;2023-02-01T10:24:13;15.90;;;4.53;;
209;SDS011;90;48.810;9.120;2023-02-01T10:26:51;7.47;;;4.60;;
209;SDS011;90;48.810;9.120;2023-02-01T10:29:24;8.82;;;4.88;;
209;SDS011;90;48.810;9.120;2023-02-01T10:31:58;22.75;;;4.88;;
209;SDS011;90;48.810;9.120;2023-02-01T10:34:26;13.52;;;4.65;;
209;SDS011;90;48.810;9.120;2023-02-01T10:36:59;12.90;;;4.55;;
209;SDS011;90;48.810;9.120;2023-02-01T10:39:28;6.40;;;4.40;;
209;SDS011;90;48.810;9.120;2023-02-01T10:41:56;9.68;;;4.40;;
209;SDS011;90;48.810;9.120;2023-02-01T10:44:24;17.25;;;5.05;;
209;SDS011;90;48.810;9.120;2023-02-01T10:46:53;7.05;;;4.45;;
209;SDS011;90;48.810;9.120;2023-02-01T10:49:24;18.88;;;4.63;;
209;SDS011;90;48.810;9.120;2023-02-01T10:52:06;11.50;;;4.47;;
209;SDS011;90;48.810;9.120;2023-02-01T10:54:39;11.25;;;4.60;;
209;SDS011;90;48.810;9.120;2023-02-01T10:57:07;15.80;;;4.80;;
209;SDS011;90;48.810;9.120;2023-02-01T10:59:35;15.10;;;4.80;;
209;SDS011;90;48.810;9.120;2023-02-01T11:02:05;12.40;;;4.32;;
209;SDS011;90;48.810;9.120;2023-02-01T11:04:46;8.90;;;4.25;;
209;SDS011;90;48.810;9.120;2023-02-01T11:07:16;10.68;;;5.53;;
209;SDS011;90;48.810;9.120;2023-02-01T11:09:49;14.10;;;4.43;;
209;SDS011;90;48.810;9.120;2023-02-01T11:12:25;7.20;;;4.47;;
209;SDS011;90;48.810;9.120;2023-02-01T11:15:02;13.50;;;4.93;;
209;SDS011;90;48.810;9.120;2023-02-01T11:17:42;10.77;;;4.90;;
209;SDS011;90;48.810;9.120;2023-02-01T11:20:15;9.93;;;4.20;;
209;SDS011;90;48.810;9.120;2023-02-01T11:22:47;12.40;;;4.40;;
209;SDS011;90;48.810;9.120;2023-02-01T11:25:18;11.93;;;4.25;;
209;SDS011;90;48.810;9.120;2023-02-01T11:27:47;9.75;;;4.70;;
209;SDS011;90;48.810;9.120;2023-02-01T11:30:16;12.88;;;4.72;;
209;SDS011;90;48.810;9.120;2023-02-01T11:32:45;11.10;;;5.18;;
209;SDS011;90;48.810;9.120;2023-02-01T11:35:17;10.90;;;4.15;;
209;SDS011;90;48.810;9.120;2023-02-01T11:37:48;8.57;;;4.05;;
209;SDS011;90;48.810;9.120;2023-02-01T11:40:26;7.63;;;4.07;;
209;SDS011;90;48.810;9.120;2023-02-01T11:42:55;11.00;;;3.80;;
209;SDS011;90;48.810;9.120;2023-02-01T11:45:27;9.23;;;3.90;;
209;SDS011;90;48.810;9.120;2023-02-01T11:47:56;16.83;;;4.47;;
209;SDS011;90;48.810;9.120;2023-02-01T11:50:30;12.75;;;4.30;;
209;SDS011;90;48.810;9.120;2023-02-01T11:56:00;5.28;;;4.00;;
209;SDS011;90;48.810;9.120;2023-02-01T11:58:39;8.80;;;3.90;;
209;SDS011;90;48.810;9.120;2023-02-01T12:01:31;10.25;;;4.00;;
209;SDS011;90;48.810;9.120;2023-02-01T12:07:22;16.05;;;4.05;;
209;SDS011;90;48.810;9.120;2023-02-01T12:10:00;7.18;;;3.88;;
209;SDS011;90;48.810;9.120;2023-02-01T12:12:34;14.98;;;3.88;;
209;SDS011;90;48.810;9.120;2023-02-01T12:15:17;9.35;;;4.22;;
209;SDS011;90;48.810;9.120;2023-02-01T12:21:06;12.45;;;4.03;;
209;SDS011;90;48.810;9.120;2023-02-01T12:23:57;12.02;;;4.35;;
209;SDS011;90;48.810;9.120;2023-02-01T12:26:47;11.20;;;3.70;;
209;SDS011;90;48.810;9.120;2023-02-01T12:29:29;12.00;;;4.60;;
209;SDS011;90;48.810;9.120;2023-02-01T12:32:19;11.57;;;3.78;;
209;SDS011;90;48.810;9.120;2023-02-01T12:35:01;9.52;;;4.40;;
209;SDS011;90;48.810;9.120;2023-02-01T12:37:48;11.60;;;3.88;;
209;SDS011;90;48.810;9.120;2023-02-01T12:40:28;10.73;;;4.53;;
209;SDS011;90;48.810;9.120;2023-02-01T12:43:07;7.75;;;3.88;;
209;SDS011;90;48.810;9.120;2023-02-01T12:45:47;9.05;;;4.30;;
209;SDS011;90;48.810;9.120;2023-02-01T12:48:22;11.82;;;4.30;;
209;SDS011;90;48.810;9.120;2023-02-01T12:50:55;7.82;;;3.80;;
209;SDS011;90;48.810;9.120;2023-02-01T12:53:27;14.00;;;4.13;;
209;SDS011;90;48.810;9.120;2023-02-01T12:56:06;10.52;;;3.90;;
209;SDS011;90;48.810;9.120;2023-02-01T12:58:39;7.38;;;4.35;;
209;SDS011;90;48.810;9.120;2023-02-01T13:01:12;14.35;;;4.72;;
209;SDS011;90;48.810;9.120;2023-02-01T13:03:43;7.72;;;4.65;;
209;SDS011;90;48.810;9.120;2023-02-01T13:06:19;16.33;;;4.80;;
209;SDS011;90;48.810;9.120;2023-02-01T13:08:50;10.40;;;4.03;;
209;SDS011;90;48.810;9.120;2023-02-01T13:11:24;8.77;;;4.35;;
209;SDS011;90;48.810;9.120;2023-02-01T13:13:57;10.27;;;4.68;;
209;SDS011;90;48.810;9.120;2023-02-01T13:16:28;9.70;;;3.72;;
209;SDS011;90;48.810;9.120;2023-02-01T13:19:00;9.27;;;4.55;;
209;SDS011;90;48.810;9.120;2023-02-01T13:21:36;9.40;;;4.30;;
209;SDS011;90;48.810;9.120;2023-02-01T13:24:09;5.97;;;3.50;;
209;SDS011;90;48.810;9.120;2023-02-01T13:26:54;8.73;;;4.22;;
209;SDS011;90;48.810;9.120;2023-02-01T13:29:21;10.65;;;4.22;;
209;SDS011;90;48.810;9.120;2023-02-01T13:31:54;15.85;;;4.47;;
209;SDS011;90;48.810;9.120;2023-02-01T13:37:36;11.25;;;3.90;;
209;SDS011;90;48.810;9.120;2023-02-01T13:40:33;12.43;;;3.65;;
209;SDS011;90;48.810;9.120;2023-02-01T13:43:07;13.90;;;4.22;;
209;SDS011;90;48.810;9.120;2023-02-01T13:45:42;10.40;;;5.28;;
209;SDS011;90;48.810;9.120;2023-02-01T13:48:17;12.73;;;4.70;;
209;SDS011;90;48.810;9.120;2023-02-01T13:50:50;12.45;;;4.65;;
209;SDS011;90;48.810;9.120;2023-02-01T13:53:22;10.57;;;4.53;;
209;SDS011;90;48.810;9.120;2023-02-01T13:55:58;7.28;;;3.90;;
209;SDS011;90;48.810;9.120;2023-02-01T13:58:34;12.32;;;4.57;;
209;SDS011;90;48.810;9.120;2023-02-01T14:04:00;11.98;;;4.18;;
209;SDS011;90;48.810;9.120;2023-02-01T14:06:37;14.40;;;4.90;;
209;SDS011;90;48.810;9.120;2023-02-01T14:09:15;10.60;;;4.18;;
209;SDS011;90;48.810;9.120;2023-02-01T14:11:58;12.55;;;4.20;;
209;SDS011;90;48.810;9.120;2023-02-01T14:14:52;11.23;;;4.15;;
209;SDS011;90;48.810;9.120;2023-02-01T14:17:48;12.68;;;5.50;;
209;SDS011;90;48.810;9.120;2023-02-01T14:23:21;15.20;;;4.45;;
209;SDS011;90;48.810;9.120;2023-02-01T14:28:44;12.52;;;4.78;;
209;SDS011;90;48.810;9.120;2023-02-01T14:34:22;8.23;;;4.00;;
209;SDS011;90;48.810;9.120;2023-02-01T14:36:55;11.30;;;4.40;;
209;SDS011;90;48.810;9.120;2023-02-01T14:39:29;9.85;;;4.85;;
209;SDS011;90;48.810;9.120;2023-02-01T14:42:04;7.50;;;3.80;;
209;SDS011;90;48.810;9.120;2023-02-01T14:44:40;17.20;;;4.45;;
209;SDS011;90;48.810;9.120;2023-02-01T14:49:56;9.00;;;4.53;;
209;SDS011;90;48.810;9.120;2023-02-01T14:52:41;11.55;;;4.60;;
209;SDS011;90;48.810;9.120;2023-02-01T14:55:13;12.77;;;4.53;;
209;SDS011;90;48.810;9.120;2023-02-01T14:57:45;17.50;;;5.15;;
209;SDS011;90;48.810;9.120;2023-02-01T15:00:18;12.20;;;4.53;;
209;SDS011;90;48.810;9.120;2023-02-01T15:02:50;24.05;;;5.50;;
209;SDS011;90;48.810;9.120;2023-02-01T15:08:05;13.98;;;4.47;;
209;SDS011;90;48.810;9.120;2023-02-01T15:10:41;9.50;;;4.47;;
209;SDS011;90;48.810;9.120;2023-02-01T15:13:20;8.88;;;4.43;;
209;SDS011;90;48.810;9.120;2023-02-01T15:16:02;17.40;;;5.35;;
209;SDS011;90;48.810;9.120;2023-02-01T15:18:32;15.35;;;5.00;;
209;SDS011;90;48.810;9.120;2023-02-01T15:21:00;9.68;;;4.68;;
209;SDS011;90;48.810;9.120;2023-02-01T15:23:29;15.82;;;4.78;;
209;SDS011;90;48.810;9.120;2023-02-01T15:25:56;11.35;;;4.53;;
209;SDS011;90;48.810;9.120;2023-02-01T15:28:24;18.02;;;4.50;;
209;SDS011;90;48.810;9.120;2023-02-01T15:30:53;8.65;;;4.25;;
209;SDS011;90;48.810;9.120;2023-02-01T15:33:22;15.93;;;4.65;;
209;SDS011;90;48.810;9.120;2023-02-01T15:35:51;5.55;;;4.15;;
209;SDS011;90;48.810;9.120;2023-02-01T15:38:20;10.40;;;4.63;;
209;SDS011;90;48.810;9.120;2023-02-01T15:41:02;8.65;;;4.25;;
209;SDS011;90;48.810;9.120;2023-02-01T15:43:36;12.93;;;4.80;;
209;SDS011;90;48.810;9.120;2023-02-01T15:46:07;11.02;;;4.13;;
209;SDS011;90;48.810;9.120;2023-02-01T15:48:36;14.00;;;5.00;;
209;SDS011;90;48.810;9.120;2023-02-01T15:51:12;10.30;;;4.45;;
209;SDS011;90;48.810;9.120;2023-02-01T15:53:43;13.80;;;4.40;;
209;SDS011;90;48.810;9.120;2023-02-01T15:56:15;11.63;;;4.00;;
209;SDS011;90;48.810;9.120;2023-02-01T15:58:50;15.38;;;4.15;;
209;SDS011;90;48.810;9.120;2023-02-01T16:01:20;16.02;;;4.47;;
209;SDS011;90;48.810;9.120;2023-02-01T16:03:47;14.07;;;3.90;;
209;SDS011;90;48.810;9.120;2023-02-01T16:06:28;8.27;;;3.80;;
209;SDS011;90;48.810;9.120;2023-02-01T16:09:00;9.65;;;4.22;;
209;SDS011;90;48.810;9.120;2023-02-01T16:11:30;12.07;;;4.10;;
209;SDS011;90;48.810;9.120;2023-02-01T16:13:58;11.15;;;4.13;;
209;SDS011;90;48.810;9.120;2023-02-01T16:16:27;8.00;;;3.97;;
209;SDS011;90;48.810;9.120;2023-02-01T16:18:54;14.38;;;4.68;;
209;SDS011;90;48.810;9.120;2023-02-01T16:21:21;5.63;;;4.22;;
209;SDS011;90;48.810;9.120;2023-02-01T16:23:51;11.75;;;4.00;;
209;SDS011;90;48.810;9.120;2023-02-01T16:26:18;10.07;;;4.40;;
209;SDS011;90;48.810;9.120;2023-02-01T16:28:45;8.23;;;4.30;;
209;SDS011;90;48.810;9.120;2023-02-01T16:31:13;12.00;;;4.63;;
209;SDS011;90;48.810;9.120;2023-02-01T16:33:44;6.20;;;3.65;;
209;SDS011;90;48.810;9.120;2023-02-01T16:36:16;9.23;;;4.00;;
209;SDS011;90;48.810;9.120;2023-02-01T16:38:44;8.20;;;3.83;;
209;SDS011;90;48.810;9.120;2023-02-01T16:41:16;6.88;;;3.75;;
209;SDS011;90;48.810;9.120;2023-02-01T16:43:44;13.07;;;4.20;;
209;SDS011;90;48.810;9.120;2023-02-01T16:46:21;8.15;;;4.45;;
209;SDS011;90;48.810;9.120;2023-02-01T16:48:51;11.50;;;4.30;;
209;SDS011;90;48.810;9.120;2023-02-01T16:51:26;7.85;;;3.90;;
209;SDS011;90;48.810;9.120;2023-02-01T16:54:15;14.88;;;3.90;;